Time;durP1;ratioP1;P1;durP2;ratioP2;P2;SDS_P1;SDS_P2;PMS_P1;PMS_P2;Temp;Humidity;BMP_temperature;BMP_pressure;BME280_temperature;BME280_humidity;BME280_pressure;Samples;Min_cycle;Max_cycle;Signal;HPM_P1;HPM_P2
2023/05/27 00:00:34;;;;;;;6.65;3.22;;;;;;;;;;5014778;28;20233;-60
2023/05/27 00:03:00;;;;;;;5.68;3.40;;;;;;;;;;5010898;28;20177;-60
2023/05/27 00:05:27;;;;;;;7.07;3.22;;;;;;;;;;5012456;28;20181;-60
2023/05/27 00:07:53;;;;;;;9.18;3.55;;;;;;;;;;5002655;28;20552;-60
2023/05/27 00:10:19;;;;;;;7.70;3.33;;;;;;;;;;5014130;28;20246;-60
2023/05/27 00:12:45;;;;;;;4.97;2.90;;;;;;;;;;5012226;28;20173;-60
2023/05/27 00:15:11;;;;;;;7.18;3.30;;;;;;;;;;5013427;28;20204;-60
2023/05/27 00:17:39;;;;;;;6.35;3.00;;;;;;;;;;5013119;28;20242;-60
2023/05/27 00:20:07;;;;;;;6.60;3.05;;;;;;;;;;5015329;28;20287;-60
2023/05/27 00:22:34;;;;;;;6.95;3.22;;;;;;;;;;5014111;28;20208;-61
2023/05/27 00:25:00;;;;;;;7.25;3.20;;;;;;;;;;5013082;28;20267;-61
2023/05/27 00:27:26;;;;;;;7.03;3.33;;;;;;;;;;5013587;28;20530;-61
2023/05/27 00:29:52;;;;;;;7.72;3.00;;;;;;;;;;5005514;28;20307;-61
2023/05/27 00:32:18;;;;;;;6.95;3.05;;;;;;;;;;5027526;28;20383;-61
2023/05/27 00:34:45;;;;;;;8.73;3.17;;;;;;;;;;5008541;28;20184;-61
2023/05/27 00:37:11;;;;;;;5.60;2.83;;;;;;;;;;5019116;28;20188;-60
2023/05/27 00:39:36;;;;;;;7.22;3.00;;;;;;;;;;5010227;28;20234;-60
2023/05/27 00:42:03;;;;;;;9.07;3.13;;;;;;;;;;5013055;28;20184;-60
2023/05/27 00:44:29;;;;;;;6.70;3.15;;;;;;;;;;5009966;28;20226;-61
2023/05/27 00:46:55;;;;;;;6.38;3.83;;;;;;;;;;5003803;28;20181;-60
2023/05/27 00:49:21;;;;;;;6.20;3.35;;;;;;;;;;5012223;28;20219;-61
2023/05/27 00:51:47;;;;;;;6.18;3.17;;;;;;;;;;5013633;28;20255;-61
2023/05/27 00:54:13;;;;;;;4.32;2.60;;;;;;;;;;5013513;28;20268;-61
2023/05/27 00:56:39;;;;;;;8.98;3.10;;;;;;;;;;5012254;28;20211;-60
2023/05/27 00:59:05;;;;;;;7.10;3.28;;;;;;;;;;5010447;28;20207;-60
2023/05/27 01:01:33;;;;;;;6.60;3.70;;;;;;;;;;5012871;28;20449;-60
2023/05/27 01:03:59;;;;;;;6.45;3.35;;;;;;;;;;5020876;28;20189;-60
2023/05/27 01:06:40;;;;;;;7.20;3.15;;;;;;;;;;5005669;28;20189;-60
2023/05/27 01:09:09;;;;;;;6.18;3.15;;;;;;;;;;5011978;28;20467;-60
2023/05/27 01:11:37;;;;;;;6.57;3.42;;;;;;;;;;5010188;28;20581;-61
2023/05/27 01:14:07;;;;;;;5.68;2.97;;;;;;;;;;5013327;28;20187;-61
2023/05/27 01:16:34;;;;;;;5.82;2.90;;;;;;;;;;5008305;28;20190;-60
2023/05/27 01:19:02;;;;;;;7.25;3.28;;;;;;;;;;5006749;28;20208;-61
2023/05/27 01:21:30;;;;;;;5.95;2.40;;;;;;;;;;5007121;28;20180;-61
2023/05/27 01:24:03;;;;;;;4.60;2.72;;;;;;;;;;5014463;28;20172;-61
2023/05/27 01:26:29;;;;;;;6.63;3.38;;;;;;;;;;5016599;28;20199;-61
2023/05/27 01:28:55;;;;;;;6.07;2.75;;;;;;;;;;5011108;28;20215;-61
2023/05/27 01:31:27;;;;;;;5.72;3.05;;;;;;;;;;5006309;28;20187;-60
2023/05/27 01:33:59;;;;;;;7.57;2.72;;;;;;;;;;5016571;28;20180;-60
2023/05/27 01:36:26;;;;;;;5.38;2.55;;;;;;;;;;5009865;28;20188;-60
2023/05/27 01:38:53;;;;;;;6.35;2.97;;;;;;;;;;5012130;28;20193;-60
2023/05/27 01:41:21;;;;;;;5.93;2.80;;;;;;;;;;5012854;28;20223;-61
2023/05/27 01:43:47;;;;;;;5.63;3.20;;;;;;;;;;5012663;28;20170;-61
2023/05/27 01:46:14;;;;;;;4.28;2.80;;;;;;;;;;5012967;28;20192;-61
2023/05/27 01:48:40;;;;;;;6.15;2.88;;;;;;;;;;5001734;28;20453;-61
2023/05/27 01:51:06;;;;;;;6.28;2.90;;;;;;;;;;5009706;28;20216;-60
2023/05/27 01:53:32;;;;;;;6.25;3.10;;;;;;;;;;5013190;28;20214;-60
2023/05/27 01:55:58;;;;;;;4.63;2.80;;;;;;;;;;5013017;28;20200;-61
2023/05/27 01:58:23;;;;;;;6.72;2.60;;;;;;;;;;5006291;28;20216;-61
2023/05/27 02:00:50;;;;;;;4.15;2.92;;;;;;;;;;5012948;28;20565;-61
2023/05/27 02:03:15;;;;;;;6.28;3.05;;;;;;;;;;5014569;28;20320;-61
2023/05/27 02:05:42;;;;;;;5.32;3.13;;;;;;;;;;5008399;28;20303;-61
2023/05/27 02:08:08;;;;;;;7.90;3.20;;;;;;;;;;5012567;28;20279;-61
2023/05/27 02:10:34;;;;;;;5.32;2.80;;;;;;;;;;5013384;28;20212;-61
2023/05/27 02:13:00;;;;;;;6.40;3.03;;;;;;;;;;5006975;28;20180;-61
2023/05/27 02:15:26;;;;;;;7.03;3.15;;;;;;;;;;5028278;28;20200;-61
2023/05/27 02:17:55;;;;;;;7.43;2.85;;;;;;;;;;5014935;28;20242;-61
2023/05/27 02:20:22;;;;;;;4.93;2.88;;;;;;;;;;5015471;28;20199;-61
2023/05/27 02:22:47;;;;;;;3.80;2.90;;;;;;;;;;5028416;28;20246;-62
2023/05/27 02:25:13;;;;;;;5.95;2.92;;;;;;;;;;5016795;28;20592;-62
2023/05/27 02:27:41;;;;;;;5.90;2.85;;;;;;;;;;5016616;28;20265;-61
2023/05/27 02:30:08;;;;;;;4.53;2.63;;;;;;;;;;5014067;28;20200;-61
2023/05/27 02:32:34;;;;;;;3.85;2.80;;;;;;;;;;5010410;28;20271;-61
2023/05/27 02:35:00;;;;;;;4.70;2.80;;;;;;;;;;5016921;28;20261;-61
2023/05/27 02:37:27;;;;;;;4.88;2.50;;;;;;;;;;5016165;28;20272;-62
2023/05/27 02:39:54;;;;;;;4.47;2.65;;;;;;;;;;5009161;28;20213;-62
2023/05/27 02:42:20;;;;;;;5.15;2.67;;;;;;;;;;5013660;28;20181;-62
2023/05/27 02:44:46;;;;;;;5.00;2.85;;;;;;;;;;5014282;28;20184;-62
2023/05/27 02:47:12;;;;;;;5.28;2.63;;;;;;;;;;5006813;28;20230;-62
2023/05/27 02:49:38;;;;;;;4.35;2.28;;;;;;;;;;5012183;28;20208;-62
2023/05/27 02:52:04;;;;;;;6.15;3.42;;;;;;;;;;5008689;28;20511;-61
2023/05/27 02:54:30;;;;;;;7.53;2.88;;;;;;;;;;5015147;28;20185;-61
2023/05/27 02:56:56;;;;;;;5.70;2.90;;;;;;;;;;5009130;28;20557;-61
2023/05/27 02:59:22;;;;;;;12.02;2.75;;;;;;;;;;5014188;28;20173;-61
2023/05/27 03:01:48;;;;;;;3.75;2.40;;;;;;;;;;5015671;28;20278;-61
2023/05/27 03:04:13;;;;;;;6.30;2.97;;;;;;;;;;5013997;28;20228;-61
2023/05/27 03:06:40;;;;;;;4.95;3.10;;;;;;;;;;5023061;28;20196;-61
2023/05/27 03:09:07;;;;;;;5.40;3.17;;;;;;;;;;5015559;28;20938;-61
2023/05/27 03:11:33;;;;;;;5.70;2.42;;;;;;;;;;5011721;28;20188;-61
2023/05/27 03:13:59;;;;;;;9.15;3.30;;;;;;;;;;5014145;28;20198;-62
2023/05/27 03:16:25;;;;;;;4.00;2.80;;;;;;;;;;5015242;28;20269;-61
2023/05/27 03:18:51;;;;;;;6.95;3.10;;;;;;;;;;5009844;28;20261;-61
2023/05/27 03:21:16;;;;;;;6.28;2.60;;;;;;;;;;5013669;28;20337;-61
2023/05/27 03:23:42;;;;;;;5.93;2.53;;;;;;;;;;5009013;28;20529;-61
2023/05/27 03:26:08;;;;;;;4.32;2.22;;;;;;;;;;5009060;28;20182;-61
2023/05/27 03:28:34;;;;;;;4.82;2.72;;;;;;;;;;5011116;28;20190;-61
2023/05/27 03:31:00;;;;;;;5.80;2.42;;;;;;;;;;5011742;28;20232;-61
2023/05/27 03:33:26;;;;;;;5.20;2.75;;;;;;;;;;5014771;28;20739;-61
2023/05/27 03:35:52;;;;;;;3.58;2.50;;;;;;;;;;5012653;28;20244;-61
2023/05/27 03:38:18;;;;;;;5.40;2.70;;;;;;;;;;5011671;28;20282;-61
2023/05/27 03:40:44;;;;;;;6.55;2.92;;;;;;;;;;5015084;28;20198;-61
2023/05/27 03:43:10;;;;;;;4.75;2.53;;;;;;;;;;5014315;28;20480;-61
2023/05/27 03:45:36;;;;;;;4.60;2.50;;;;;;;;;;5015310;28;20213;-61
2023/05/27 03:48:02;;;;;;;5.15;2.53;;;;;;;;;;5014492;28;20244;-60
2023/05/27 03:50:28;;;;;;;7.60;3.13;;;;;;;;;;5014850;28;20240;-60
2023/05/27 03:52:54;;;;;;;3.97;2.60;;;;;;;;;;5014674;28;20218;-61
2023/05/27 03:55:22;;;;;;;4.70;2.40;;;;;;;;;;5016525;28;20193;-61
2023/05/27 03:57:48;;;;;;;6.85;2.90;;;;;;;;;;5014531;28;20234;-61
2023/05/27 04:00:16;;;;;;;4.18;2.50;;;;;;;;;;5014720;28;20249;-61
2023/05/27 04:02:42;;;;;;;5.38;2.85;;;;;;;;;;5013968;28;20222;-61
2023/05/27 04:05:08;;;;;;;4.28;2.58;;;;;;;;;;5015003;28;20256;-61
2023/05/27 04:07:34;;;;;;;8.70;3.22;;;;;;;;;;5002212;28;20195;-61
2023/05/27 04:10:00;;;;;;;9.10;3.10;;;;;;;;;;5014314;28;20218;-61
2023/05/27 04:12:26;;;;;;;6.15;2.83;;;;;;;;;;5014401;28;20265;-61
2023/05/27 04:14:52;;;;;;;5.50;3.08;;;;;;;;;;5014100;28;20521;-61
2023/05/27 04:17:18;;;;;;;4.80;2.83;;;;;;;;;;5010890;28;20245;-61
2023/05/27 04:19:44;;;;;;;4.00;2.63;;;;;;;;;;5008790;28;20210;-60
2023/05/27 04:22:10;;;;;;;4.88;2.83;;;;;;;;;;5010807;28;20480;-60
2023/05/27 04:24:36;;;;;;;6.00;2.95;;;;;;;;;;5009707;28;20194;-60
2023/05/27 04:27:02;;;;;;;4.32;2.58;;;;;;;;;;5014316;28;20213;-60
2023/05/27 04:29:28;;;;;;;3.30;2.40;;;;;;;;;;5008558;28;20240;-60
2023/05/27 04:31:56;;;;;;;7.53;2.97;;;;;;;;;;5012768;28;20222;-61
2023/05/27 04:34:22;;;;;;;4.38;2.70;;;;;;;;;;5011750;28;20186;-61
2023/05/27 04:36:49;;;;;;;7.50;2.70;;;;;;;;;;5011995;28;20216;-63
2023/05/27 04:39:16;;;;;;;5.50;3.08;;;;;;;;;;5004916;28;20272;-56
2023/05/27 04:41:42;;;;;;;6.82;2.78;;;;;;;;;;5013981;28;20196;-56
2023/05/27 04:44:08;;;;;;;5.15;2.80;;;;;;;;;;5011405;28;20210;-56
2023/05/27 04:46:34;;;;;;;3.45;2.45;;;;;;;;;;5016869;28;20585;-56
2023/05/27 04:49:00;;;;;;;5.28;2.70;;;;;;;;;;5012269;28;20198;-56
2023/05/27 04:51:26;;;;;;;6.13;3.10;;;;;;;;;;5009597;28;20634;-56
2023/05/27 04:53:54;;;;;;;6.03;3.30;;;;;;;;;;5013292;28;20194;-46
2023/05/27 04:56:20;;;;;;;11.90;3.38;;;;;;;;;;5010633;28;20190;-49
2023/05/27 04:58:49;;;;;;;10.23;3.90;;;;;;;;;;5010007;28;20628;-50
2023/05/27 05:01:20;;;;;;;18.95;3.85;;;;;;;;;;5013324;28;20200;-49
2023/05/27 05:04:02;;;;;;;9.55;3.25;;;;;;;;;;5012928;28;20268;-48
2023/05/27 05:06:28;;;;;;;8.40;2.85;;;;;;;;;;5011284;28;20189;-49
2023/05/27 05:08:54;;;;;;;9.02;3.33;;;;;;;;;;5006481;28;20231;-49
2023/05/27 05:11:21;;;;;;;8.02;3.03;;;;;;;;;;5009962;28;20480;-49
2023/05/27 05:13:47;;;;;;;9.13;3.13;;;;;;;;;;5010776;28;20259;-48
2023/05/27 05:16:13;;;;;;;5.82;3.10;;;;;;;;;;5013012;28;20325;-48
2023/05/27 05:18:38;;;;;;;7.38;3.08;;;;;;;;;;5008972;28;20208;-48
2023/05/27 05:21:04;;;;;;;7.30;3.60;;;;;;;;;;5007434;28;20569;-48
2023/05/27 05:23:31;;;;;;;9.35;3.42;;;;;;;;;;5004943;28;20235;-48
2023/05/27 05:26:05;;;;;;;5.38;2.63;;;;;;;;;;5013742;28;20306;-48
2023/05/27 05:28:31;;;;;;;9.73;3.17;;;;;;;;;;5009719;28;20191;-48
2023/05/27 05:30:57;;;;;;;7.95;3.17;;;;;;;;;;5011610;28;20200;-48
2023/05/27 05:33:23;;;;;;;9.65;3.10;;;;;;;;;;5012466;28;20642;-49
2023/05/27 05:35:49;;;;;;;6.57;3.38;;;;;;;;;;5012434;28;20735;-48
2023/05/27 05:38:15;;;;;;;9.32;2.90;;;;;;;;;;5007441;28;20192;-48
2023/05/27 05:40:41;;;;;;;9.48;3.22;;;;;;;;;;5013303;28;20190;-48
2023/05/27 05:43:07;;;;;;;7.40;3.20;;;;;;;;;;5013754;28;20180;-48
2023/05/27 05:45:33;;;;;;;7.82;2.90;;;;;;;;;;5011614;28;20662;-48
2023/05/27 05:47:59;;;;;;;4.68;2.53;;;;;;;;;;5011844;28;20180;-48
2023/05/27 05:50:26;;;;;;;7.07;3.55;;;;;;;;;;5013287;28;20607;-48
2023/05/27 05:52:52;;;;;;;7.07;3.30;;;;;;;;;;5013897;28;20271;-48
2023/05/27 05:55:18;;;;;;;6.20;3.00;;;;;;;;;;5009819;28;20464;-48
2023/05/27 05:57:43;;;;;;;4.88;2.90;;;;;;;;;;5015143;28;20180;-48
2023/05/27 06:00:11;;;;;;;12.18;3.22;;;;;;;;;;5013136;28;20200;-48
2023/05/27 06:02:37;;;;;;;6.82;2.75;;;;;;;;;;5013554;28;20291;-48
2023/05/27 06:05:03;;;;;;;8.98;2.95;;;;;;;;;;5015396;28;20298;-48
2023/05/27 06:07:29;;;;;;;8.18;2.33;;;;;;;;;;5008860;28;20181;-48
2023/05/27 06:09:55;;;;;;;8.50;2.90;;;;;;;;;;5003364;28;20212;-48
2023/05/27 06:12:21;;;;;;;5.68;2.40;;;;;;;;;;5013747;28;20229;-48
2023/05/27 06:14:47;;;;;;;5.63;2.50;;;;;;;;;;5016100;28;20181;-48
2023/05/27 06:17:13;;;;;;;5.70;2.67;;;;;;;;;;5017152;28;20465;-48
2023/05/27 06:19:39;;;;;;;5.80;2.72;;;;;;;;;;5011070;28;20206;-48
2023/05/27 06:22:05;;;;;;;5.90;2.70;;;;;;;;;;5013526;28;20213;-48
2023/05/27 06:24:31;;;;;;;7.57;2.95;;;;;;;;;;5012836;28;20435;-49
2023/05/27 06:26:57;;;;;;;6.53;2.45;;;;;;;;;;5010072;28;20185;-49
2023/05/27 06:29:23;;;;;;;5.63;2.78;;;;;;;;;;5011354;28;20201;-50
2023/05/27 06:31:49;;;;;;;9.65;3.65;;;;;;;;;;5015057;28;20488;-48
2023/05/27 06:34:18;;;;;;;4.55;2.45;;;;;;;;;;5012279;28;20184;-48
2023/05/27 06:36:48;;;;;;;9.23;3.08;;;;;;;;;;5018173;28;20180;-49
2023/05/27 06:39:14;;;;;;;9.57;2.92;;;;;;;;;;5010478;28;20188;-48
2023/05/27 06:41:41;;;;;;;8.35;3.25;;;;;;;;;;5011693;28;20504;-48
2023/05/27 06:44:06;;;;;;;8.30;2.95;;;;;;;;;;5013372;28;20187;-48
2023/05/27 06:46:32;;;;;;;10.02;3.30;;;;;;;;;;5012105;28;20213;-48
2023/05/27 06:48:58;;;;;;;8.80;3.45;;;;;;;;;;5011641;28;20702;-48
2023/05/27 06:51:24;;;;;;;7.32;2.53;;;;;;;;;;5012087;28;20210;-49
2023/05/27 06:53:50;;;;;;;7.68;2.70;;;;;;;;;;5014572;28;20219;-48
2023/05/27 06:56:16;;;;;;;9.93;2.95;;;;;;;;;;5010233;28;20192;-48
2023/05/27 06:58:42;;;;;;;8.77;3.15;;;;;;;;;;5009707;28;20184;-48
2023/05/27 07:01:08;;;;;;;7.97;2.95;;;;;;;;;;5003629;28;20610;-48
2023/05/27 07:03:34;;;;;;;8.18;3.10;;;;;;;;;;5014199;28;20266;-48
2023/05/27 07:06:00;;;;;;;11.02;3.00;;;;;;;;;;5015056;28;20192;-48
2023/05/27 07:08:26;;;;;;;6.68;2.60;;;;;;;;;;5007590;28;20204;-48
2023/05/27 07:10:51;;;;;;;10.15;3.05;;;;;;;;;;5014450;28;20208;-48
2023/05/27 07:13:17;;;;;;;8.68;2.67;;;;;;;;;;5013544;28;20195;-48
2023/05/27 07:15:43;;;;;;;6.68;2.50;;;;;;;;;;5015396;28;20263;-49
2023/05/27 07:18:09;;;;;;;7.63;2.72;;;;;;;;;;5012153;28;20191;-48
2023/05/27 07:20:35;;;;;;;5.18;2.75;;;;;;;;;;5013365;28;20202;-48
2023/05/27 07:23:01;;;;;;;9.05;3.03;;;;;;;;;;5015129;28;20228;-48
2023/05/27 07:25:27;;;;;;;12.32;3.10;;;;;;;;;;5014272;28;20211;-48
2023/05/27 07:27:53;;;;;;;7.60;2.90;;;;;;;;;;5015511;28;20185;-48
2023/05/27 07:30:19;;;;;;;10.70;2.85;;;;;;;;;;5008590;28;20240;-48
2023/05/27 07:32:46;;;;;;;7.45;2.83;;;;;;;;;;5010955;28;20520;-48
2023/05/27 07:35:11;;;;;;;10.40;2.97;;;;;;;;;;5014446;28;20188;-48
2023/05/27 07:37:37;;;;;;;6.75;2.65;;;;;;;;;;5014527;28;20189;-48
2023/05/27 07:40:04;;;;;;;8.15;3.20;;;;;;;;;;5009824;28;20184;-48
2023/05/27 07:42:30;;;;;;;10.10;2.78;;;;;;;;;;5015299;28;20185;-48
2023/05/27 07:44:56;;;;;;;11.55;3.47;;;;;;;;;;5009969;28;20322;-48
2023/05/27 07:47:21;;;;;;;6.18;2.80;;;;;;;;;;5006990;28;20208;-48
2023/05/27 07:49:49;;;;;;;9.27;3.33;;;;;;;;;;5014728;28;20229;-48
2023/05/27 07:52:15;;;;;;;9.73;3.30;;;;;;;;;;5014596;28;20207;-48
2023/05/27 07:54:41;;;;;;;9.23;3.33;;;;;;;;;;5014852;28;20190;-48
2023/05/27 07:57:07;;;;;;;11.43;3.50;;;;;;;;;;5024792;28;20207;-48
2023/05/27 07:59:33;;;;;;;9.02;4.07;;;;;;;;;;5004079;28;20464;-48
2023/05/27 08:01:59;;;;;;;7.40;3.22;;;;;;;;;;5009838;28;20191;-48
2023/05/27 08:04:25;;;;;;;8.82;3.13;;;;;;;;;;5014729;28;20214;-48
2023/05/27 08:06:51;;;;;;;8.13;3.15;;;;;;;;;;5011450;28;20205;-48
2023/05/27 08:09:16;;;;;;;10.73;3.17;;;;;;;;;;5010732;28;20359;-48
2023/05/27 08:11:42;;;;;;;12.18;3.28;;;;;;;;;;5012110;28;20313;-48
2023/05/27 08:14:08;;;;;;;12.50;3.35;;;;;;;;;;5014022;28;20887;-48
2023/05/27 08:16:34;;;;;;;8.27;3.00;;;;;;;;;;5013633;28;20217;-48
2023/05/27 08:19:00;;;;;;;13.43;3.78;;;;;;;;;;5009629;28;20500;-48
2023/05/27 08:21:26;;;;;;;9.43;2.95;;;;;;;;;;5013628;28;20226;-48
2023/05/27 08:23:52;;;;;;;8.90;3.10;;;;;;;;;;5012982;28;20191;-48
2023/05/27 08:26:18;;;;;;;11.75;3.22;;;;;;;;;;5013480;28;20198;-48
2023/05/27 08:28:46;;;;;;;10.90;3.38;;;;;;;;;;5014150;28;20237;-48
2023/05/27 08:31:12;;;;;;;9.10;3.17;;;;;;;;;;5007968;28;20230;-49
2023/05/27 08:33:38;;;;;;;8.30;2.95;;;;;;;;;;5002288;28;20253;-48
2023/05/27 08:36:03;;;;;;;9.32;3.15;;;;;;;;;;5007484;28;20191;-48
2023/05/27 08:38:29;;;;;;;12.07;3.05;;;;;;;;;;5013618;28;20197;-48
2023/05/27 08:40:55;;;;;;;9.77;3.13;;;;;;;;;;5010945;28;20203;-49
2023/05/27 08:43:22;;;;;;;9.65;3.28;;;;;;;;;;5012040;28;20199;-48
2023/05/27 08:45:48;;;;;;;9.02;3.25;;;;;;;;;;5005674;28;20466;-48
2023/05/27 08:48:15;;;;;;;10.95;3.30;;;;;;;;;;5013997;28;20278;-48
2023/05/27 08:50:41;;;;;;;8.85;3.15;;;;;;;;;;5006408;28;20260;-48
2023/05/27 08:53:07;;;;;;;10.50;3.90;;;;;;;;;;5009343;28;20230;-48
2023/05/27 08:55:33;;;;;;;7.13;3.10;;;;;;;;;;5013352;28;20201;-48
2023/05/27 08:57:59;;;;;;;12.38;3.20;;;;;;;;;;5012058;28;20529;-49
2023/05/27 09:00:26;;;;;;;10.55;3.20;;;;;;;;;;5013017;28;20471;-49
2023/05/27 09:02:56;;;;;;;8.25;3.40;;;;;;;;;;5007335;28;20205;-48
2023/05/27 09:05:22;;;;;;;9.18;2.80;;;;;;;;;;5006050;28;20226;-48
2023/05/27 09:07:48;;;;;;;12.70;3.55;;;;;;;;;;5008169;28;20197;-49
2023/05/27 09:10:14;;;;;;;9.27;2.97;;;;;;;;;;5013652;28;20232;-49
2023/05/27 09:12:43;;;;;;;4.70;2.58;;;;;;;;;;5011528;28;20613;-49
2023/05/27 09:15:09;;;;;;;6.97;2.92;;;;;;;;;;5004572;28;20605;-48
2023/05/27 09:17:41;;;;;;;10.82;3.45;;;;;;;;;;5008524;28;20581;-48
2023/05/27 09:20:13;;;;;;;7.82;3.10;;;;;;;;;;5026846;28;20214;-48
2023/05/27 09:22:40;;;;;;;6.15;3.00;;;;;;;;;;5011077;28;20194;-48
2023/05/27 09:25:06;;;;;;;8.45;3.00;;;;;;;;;;5006788;28;20209;-48
2023/05/27 09:27:32;;;;;;;8.65;3.28;;;;;;;;;;5013942;28;20201;-48
2023/05/27 09:30:06;;;;;;;10.30;3.00;;;;;;;;;;5014786;28;20206;-49
2023/05/27 09:32:32;;;;;;;7.22;2.90;;;;;;;;;;5012690;28;20193;-49
2023/05/27 09:35:00;;;;;;;10.30;3.40;;;;;;;;;;5016990;28;20202;-51
2023/05/27 09:37:32;;;;;;;8.95;3.40;;;;;;;;;;5017158;28;20190;-48
2023/05/27 09:39:59;;;;;;;5.03;3.00;;;;;;;;;;5012597;28;20209;-49
2023/05/27 09:42:25;;;;;;;7.45;2.90;;;;;;;;;;5017018;28;20201;-48
2023/05/27 09:44:51;;;;;;;9.55;3.92;;;;;;;;;;5015287;28;20208;-49
2023/05/27 09:47:20;;;;;;;8.85;3.50;;;;;;;;;;5017498;28;20222;-49
2023/05/27 09:49:46;;;;;;;8.73;3.05;;;;;;;;;;5016736;28;20237;-48
2023/05/27 09:52:13;;;;;;;7.88;3.30;;;;;;;;;;5018443;28;20209;-48
2023/05/27 09:54:39;;;;;;;8.55;3.50;;;;;;;;;;5015504;28;20190;-48
2023/05/27 09:57:07;;;;;;;7.97;3.20;;;;;;;;;;5009803;28;20182;-48
2023/05/27 09:59:33;;;;;;;7.15;3.03;;;;;;;;;;5015694;28;20205;-48
2023/05/27 10:02:02;;;;;;;7.72;3.55;;;;;;;;;;5016641;28;20256;-48
2023/05/27 10:04:28;;;;;;;9.23;2.95;;;;;;;;;;5015964;28;20226;-48
2023/05/27 10:06:54;;;;;;;6.80;2.67;;;;;;;;;;5007686;28;20585;-48
2023/05/27 10:09:20;;;;;;;10.52;3.35;;;;;;;;;;5016717;28;20205;-49
2023/05/27 10:11:46;;;;;;;8.05;3.08;;;;;;;;;;5009261;28;20478;-48
2023/05/27 10:14:12;;;;;;;6.32;3.05;;;;;;;;;;5016386;28;20202;-48
2023/05/27 10:16:38;;;;;;;8.00;3.13;;;;;;;;;;5014859;28;20273;-48
2023/05/27 10:19:09;;;;;;;7.53;2.83;;;;;;;;;;5015997;28;20677;-48
2023/05/27 10:21:42;;;;;;;7.57;2.60;;;;;;;;;;5013135;28;20204;-48
2023/05/27 10:24:10;;;;;;;6.20;2.58;;;;;;;;;;5014230;28;20194;-49
2023/05/27 10:26:37;;;;;;;7.15;2.78;;;;;;;;;;5006442;28;20245;-48
2023/05/27 10:29:10;;;;;;;7.45;2.83;;;;;;;;;;5012481;28;20209;-49
2023/05/27 10:31:39;;;;;;;7.20;2.65;;;;;;;;;;5013785;28;20236;-49
2023/05/27 10:34:06;;;;;;;10.32;2.83;;;;;;;;;;5030675;28;20208;-49
2023/05/27 10:36:32;;;;;;;6.38;2.28;;;;;;;;;;5007369;28;20194;-48
2023/05/27 10:39:00;;;;;;;8.63;2.55;;;;;;;;;;5010097;28;20225;-49
2023/05/27 10:41:27;;;;;;;8.50;2.88;;;;;;;;;;5015426;28;20202;-49
2023/05/27 10:43:57;;;;;;;7.10;3.40;;;;;;;;;;5023403;28;20236;-49
2023/05/27 10:46:22;;;;;;;9.77;2.50;;;;;;;;;;5009161;28;20210;-48
2023/05/27 10:48:48;;;;;;;6.78;2.75;;;;;;;;;;5012643;28;20200;-48
2023/05/27 10:51:17;;;;;;;6.35;2.35;;;;;;;;;;5010301;28;20218;-48
2023/05/27 10:53:44;;;;;;;12.45;2.90;;;;;;;;;;5028451;28;20229;-48
2023/05/27 10:56:10;;;;;;;6.28;2.58;;;;;;;;;;5011269;28;20224;-48
2023/05/27 10:58:37;;;;;;;10.35;3.10;;;;;;;;;;5011292;28;20222;-48
2023/05/27 11:01:08;;;;;;;10.77;3.00;;;;;;;;;;5009942;28;20626;-49
2023/05/27 11:03:33;;;;;;;7.97;3.20;;;;;;;;;;5012773;28;20573;-49
2023/05/27 11:06:06;;;;;;;9.98;2.90;;;;;;;;;;5013255;28;20198;-48
2023/05/27 11:08:37;;;;;;;5.78;2.97;;;;;;;;;;5013591;28;20549;-48
2023/05/27 11:11:07;;;;;;;9.23;3.22;;;;;;;;;;5008946;28;20249;-49
2023/05/27 11:13:39;;;;;;;7.13;2.75;;;;;;;;;;5014121;28;20198;-51
2023/05/27 11:16:05;;;;;;;9.50;2.90;;;;;;;;;;5013869;28;20198;-50
2023/05/27 11:18:47;;;;;;;6.95;2.88;;;;;;;;;;5012733;28;20194;-53
2023/05/27 11:21:17;;;;;;;8.68;3.03;;;;;;;;;;4976593;28;1001580;-53
2023/05/27 11:23:45;;;;;;;5.90;2.90;;;;;;;;;;5011787;28;20195;-55
2023/05/27 11:26:13;;;;;;;11.25;2.88;;;;;;;;;;5008634;28;20297;-62
2023/05/27 11:28:38;;;;;;;9.77;3.17;;;;;;;;;;5010608;28;20191;-55
2023/05/27 11:31:04;;;;;;;12.85;2.95;;;;;;;;;;5024722;28;20445;-54
2023/05/27 11:33:34;;;;;;;10.13;3.05;;;;;;;;;;5014391;28;20200;-55
2023/05/27 11:36:18;;;;;;;21.13;5.05;;;;;;;;;;5013182;28;20208;-55
2023/05/27 11:38:51;;;;;;;17.45;4.25;;;;;;;;;;5012515;28;20449;-55
2023/05/27 11:41:17;;;;;;;110.03;19.10;;;;;;;;;;5011148;28;20202;-55
2023/05/27 11:43:47;;;;;;;61.60;12.85;;;;;;;;;;5014835;28;20205;-55
2023/05/27 11:46:13;;;;;;;55.25;12.35;;;;;;;;;;5014658;28;20721;-55
2023/05/27 11:48:39;;;;;;;45.78;10.68;;;;;;;;;;5017841;28;20214;-55
2023/05/27 11:51:05;;;;;;;37.13;9.10;;;;;;;;;;5016567;28;20589;-54
2023/05/27 11:53:31;;;;;;;34.22;8.77;;;;;;;;;;5017807;28;20188;-55
2023/05/27 11:55:57;;;;;;;32.80;10.05;;;;;;;;;;5017573;28;20182;-55
2023/05/27 11:58:23;;;;;;;29.55;7.35;;;;;;;;;;5017584;28;20185;-55
2023/05/27 12:00:50;;;;;;;30.25;6.97;;;;;;;;;;5017259;28;20185;-55
2023/05/27 12:03:16;;;;;;;24.48;6.82;;;;;;;;;;5017490;28;20186;-54
2023/05/27 12:05:42;;;;;;;24.58;6.80;;;;;;;;;;5017222;28;20277;-54
2023/05/27 12:08:08;;;;;;;26.20;6.30;;;;;;;;;;5017035;28;20178;-55
2023/05/27 12:10:34;;;;;;;26.45;6.07;;;;;;;;;;5017206;28;20282;-54
2023/05/27 12:13:06;;;;;;;17.65;5.90;;;;;;;;;;5017186;28;20485;-54
2023/05/27 12:15:32;;;;;;;16.75;5.32;;;;;;;;;;5017374;28;20189;-54
2023/05/27 12:17:58;;;;;;;19.42;5.57;;;;;;;;;;5017298;28;20248;-54
2023/05/27 12:20:27;;;;;;;14.23;5.20;;;;;;;;;;5017067;28;20202;-56
2023/05/27 12:22:53;;;;;;;15.60;5.18;;;;;;;;;;5016911;28;20269;-55
2023/05/27 12:25:19;;;;;;;12.13;4.80;;;;;;;;;;5017006;28;20227;-55
2023/05/27 12:27:45;;;;;;;16.27;4.15;;;;;;;;;;5017028;28;20186;-54
2023/05/27 12:30:12;;;;;;;11.85;3.90;;;;;;;;;;5016845;28;20616;-54
2023/05/27 12:32:38;;;;;;;12.40;3.65;;;;;;;;;;5016937;28;20209;-55
2023/05/27 12:35:04;;;;;;;11.00;3.80;;;;;;;;;;5017019;28;20186;-55
2023/05/27 12:37:30;;;;;;;15.60;3.33;;;;;;;;;;5016988;28;20179;-55
2023/05/27 12:39:56;;;;;;;13.40;3.85;;;;;;;;;;5016713;28;20580;-55
2023/05/27 12:42:22;;;;;;;12.43;4.20;;;;;;;;;;5016751;28;20198;-54
2023/05/27 12:44:48;;;;;;;12.77;4.20;;;;;;;;;;5016906;28;20186;-54
2023/05/27 12:47:14;;;;;;;10.20;3.70;;;;;;;;;;5009749;28;20240;-54
2023/05/27 12:49:42;;;;;;;11.52;3.97;;;;;;;;;;5009488;28;20302;-54
2023/05/27 12:52:08;;;;;;;12.85;3.45;;;;;;;;;;5010142;28;20190;-54
2023/05/27 12:54:33;;;;;;;11.20;4.25;;;;;;;;;;5010697;28;20276;-54
2023/05/27 12:57:01;;;;;;;8.07;3.42;;;;;;;;;;5012084;28;20186;-54
2023/05/27 12:59:27;;;;;;;5.85;3.00;;;;;;;;;;5013447;28;20204;-54
2023/05/27 13:01:53;;;;;;;9.05;3.40;;;;;;;;;;5012008;28;20190;-54
2023/05/27 13:04:19;;;;;;;6.40;2.92;;;;;;;;;;5005265;28;20203;-54
2023/05/27 13:06:45;;;;;;;8.82;3.35;;;;;;;;;;5012554;28;20218;-55
2023/05/27 13:09:12;;;;;;;12.13;3.83;;;;;;;;;;5001852;28;20212;-54
2023/05/27 13:11:38;;;;;;;6.07;3.15;;;;;;;;;;5003536;28;20240;-55
2023/05/27 13:14:08;;;;;;;10.55;3.00;;;;;;;;;;5011628;28;20202;-54
2023/05/27 13:16:34;;;;;;;5.43;2.45;;;;;;;;;;5013347;28;20293;-54
2023/05/27 13:19:00;;;;;;;6.85;2.92;;;;;;;;;;5011606;28;20198;-54
2023/05/27 13:21:26;;;;;;;7.57;2.63;;;;;;;;;;5011533;28;20220;-54
2023/05/27 13:23:52;;;;;;;7.38;2.88;;;;;;;;;;5028573;28;20198;-54
2023/05/27 13:26:18;;;;;;;7.05;3.15;;;;;;;;;;5008165;28;20276;-54
2023/05/27 13:28:45;;;;;;;5.35;2.90;;;;;;;;;;5009520;28;20225;-54
2023/05/27 13:31:10;;;;;;;8.05;3.13;;;;;;;;;;5013509;28;20221;-54
2023/05/27 13:33:37;;;;;;;4.85;2.67;;;;;;;;;;5011447;28;20205;-54
2023/05/27 13:36:03;;;;;;;6.20;3.08;;;;;;;;;;5012906;28;20186;-54
2023/05/27 13:38:29;;;;;;;5.00;2.53;;;;;;;;;;5013066;28;20332;-54
2023/05/27 13:40:55;;;;;;;7.00;2.78;;;;;;;;;;5013076;28;20206;-54
2023/05/27 13:43:21;;;;;;;7.70;2.83;;;;;;;;;;5013650;28;20232;-54
2023/05/27 13:45:47;;;;;;;4.75;2.67;;;;;;;;;;5013809;28;20562;-54
2023/05/27 13:48:13;;;;;;;6.07;2.80;;;;;;;;;;5014224;28;20245;-54
2023/05/27 13:50:38;;;;;;;5.93;2.58;;;;;;;;;;5012784;28;20230;-54
2023/05/27 13:53:04;;;;;;;5.28;2.80;;;;;;;;;;5013528;28;20734;-54
2023/05/27 13:55:30;;;;;;;7.00;3.03;;;;;;;;;;5012221;28;20486;-54
2023/05/27 13:57:57;;;;;;;4.93;2.58;;;;;;;;;;5028718;28;20206;-54
2023/05/27 14:00:23;;;;;;;4.65;2.50;;;;;;;;;;5012789;28;20194;-54
2023/05/27 14:02:49;;;;;;;7.88;3.38;;;;;;;;;;5016746;28;20450;-54
2023/05/27 14:05:15;;;;;;;7.25;3.10;;;;;;;;;;5008877;28;20226;-53
2023/05/27 14:07:46;;;;;;;6.93;2.58;;;;;;;;;;5007797;28;20229;-54
2023/05/27 14:10:12;;;;;;;5.40;2.80;;;;;;;;;;5005429;28;20236;-54
2023/05/27 14:12:38;;;;;;;6.40;3.28;;;;;;;;;;5013373;28;20476;-54
2023/05/27 14:15:04;;;;;;;6.47;2.50;;;;;;;;;;5016281;28;20519;-54
2023/05/27 14:17:30;;;;;;;5.43;2.97;;;;;;;;;;5015442;28;20252;-53
2023/05/27 14:19:56;;;;;;;7.18;2.97;;;;;;;;;;5010161;28;20218;-54
2023/05/27 14:22:22;;;;;;;6.90;2.72;;;;;;;;;;5014085;28;20198;-54
2023/05/27 14:24:48;;;;;;;7.07;2.85;;;;;;;;;;5013001;28;20202;-53
2023/05/27 14:27:14;;;;;;;7.18;2.72;;;;;;;;;;5009673;28;20216;-53
2023/05/27 14:29:40;;;;;;;5.38;2.95;;;;;;;;;;5012596;28;20222;-54
2023/05/27 14:32:07;;;;;;;6.60;2.80;;;;;;;;;;5015931;28;20211;-54
2023/05/27 14:34:32;;;;;;;5.50;2.65;;;;;;;;;;5016423;28;20194;-54
2023/05/27 14:36:58;;;;;;;5.60;2.55;;;;;;;;;;5016001;28;20466;-54